Edgewood, New York
Current Conditions -  °F | °C
As of 3:56 AM on Wednesday 26 Nov 2014 (Local Time) from KISP Reporting Station
Overcast Overcast  
Wind Chill: 45°   Ceiling: 9500
Heat Index: 49°   Visibility: 10mi
Dew Point: 31°   Wind: 10mph
Humidity: 50%   Direction: 340°NNW
Pressure: 30.13"   Gusts: NA
Location:  40.7837°N, 73.252°W
Report Text: KISP 260856Z AUTO 34009KT 10SM SCT080 OVC095 09/M01 A3013 RMK AO2 PRESFR SLP202 T00941006 58005
Loading
Personal Weather Stations






























Interactive Weather Map New forecast layout! Learn more

10-Day Weather Forecast

Advertisements
Track Severe Weather on mobile